createdAt,value
2022-12-14T00:00:28.685Z,56.08
2022-12-14T00:01:28.608Z,52.96
2022-12-14T00:02:28.784Z,49.20
2022-12-14T00:03:28.688Z,48.85
2022-12-14T00:04:28.594Z,56.94
2022-12-14T00:05:28.584Z,54.82
2022-12-14T00:06:28.579Z,52.55
2022-12-14T00:07:28.584Z,49.04
2022-12-14T00:08:29.132Z,51.12
2022-12-14T00:09:28.564Z,58.09
2022-12-14T00:10:28.558Z,54.47
2022-12-14T00:11:28.550Z,52.78
2022-12-14T00:12:28.542Z,54.59
2022-12-14T00:13:28.564Z,53.11
2022-12-14T00:14:28.528Z,56.83
2022-12-14T00:15:28.613Z,58.22
2022-12-14T00:16:28.526Z,60.41
2022-12-14T00:17:28.506Z,54.87
2022-12-14T00:18:29.065Z,53.55
2022-12-14T00:19:28.499Z,53.06
2022-12-14T00:20:28.482Z,59.66
2022-12-14T00:21:28.501Z,59.34
2022-12-14T00:22:28.476Z,57.52
2022-12-14T00:23:28.490Z,57.01
2022-12-14T00:24:28.455Z,59.73
2022-12-14T00:25:28.445Z,47.00
2022-12-14T00:26:28.440Z,49.59
2022-12-14T00:27:28.421Z,51.36
2022-12-14T00:28:29.828Z,47.40
2022-12-14T00:29:28.419Z,47.94
2022-12-14T00:30:28.415Z,53.03
2022-12-14T00:31:28.434Z,56.29
2022-12-14T00:32:28.398Z,57.46
2022-12-14T00:33:28.428Z,53.72
2022-12-14T00:34:28.383Z,53.49
2022-12-14T00:35:28.380Z,56.66
2022-12-14T00:36:28.378Z,56.88
2022-12-14T00:37:28.368Z,56.33
2022-12-14T00:38:28.754Z,56.24
2022-12-14T00:39:28.377Z,50.83
2022-12-14T00:40:28.347Z,51.00
2022-12-14T00:41:28.334Z,59.04
2022-12-14T00:42:28.327Z,63.75
2022-12-14T00:43:28.321Z,65.42
2022-12-14T00:44:28.336Z,58.46
2022-12-14T00:45:28.297Z,51.51
2022-12-14T00:46:28.354Z,61.59
2022-12-14T00:47:28.283Z,62.25
2022-12-14T00:48:28.649Z,60.35
2022-12-14T00:49:28.297Z,64.71
2022-12-14T00:50:28.264Z,54.74
2022-12-14T00:51:28.255Z,54.98
2022-12-14T00:52:28.248Z,56.15
2022-12-14T00:53:28.240Z,58.79
2022-12-14T00:54:28.260Z,59.06
2022-12-14T00:55:28.229Z,54.98
2022-12-14T00:56:28.221Z,53.53
2022-12-14T00:57:28.218Z,55.58
2022-12-14T00:58:28.575Z,55.57
2022-12-14T00:59:28.227Z,56.70
2022-12-14T01:00:28.210Z,56.44
2022-12-14T01:01:28.273Z,51.96
2022-12-14T01:02:28.265Z,50.65
2022-12-14T01:03:28.681Z,48.56
2022-12-14T01:04:28.196Z,54.53
2022-12-14T01:05:28.161Z,54.23
2022-12-14T01:06:28.155Z,53.20
2022-12-14T01:07:28.152Z,56.39
2022-12-14T01:08:28.137Z,61.06
2022-12-14T01:09:28.160Z,59.41
2022-12-14T01:10:28.121Z,53.92
2022-12-14T01:11:28.112Z,54.73
2022-12-14T01:12:28.107Z,55.24
2022-12-14T01:13:28.539Z,49.41
2022-12-14T01:14:28.130Z,50.26
2022-12-14T01:15:28.081Z,59.37
2022-12-14T01:16:28.134Z,59.61
2022-12-14T01:17:28.071Z,55.22
2022-12-14T01:18:28.065Z,60.82
2022-12-14T01:19:28.091Z,55.62
2022-12-14T01:20:28.046Z,51.37
2022-12-14T01:21:28.048Z,56.02
2022-12-14T01:22:28.031Z,58.14
2022-12-14T01:23:28.490Z,47.39
2022-12-14T01:24:28.048Z,54.69
2022-12-14T01:25:28.011Z,64.61
2022-12-14T01:26:28.003Z,56.87
2022-12-14T01:27:27.992Z,46.00
2022-12-14T01:28:27.986Z,57.42
2022-12-14T01:29:27.979Z,66.68
2022-12-14T01:30:27.998Z,63.76
2022-12-14T01:31:28.001Z,60.25
2022-12-14T01:32:27.961Z,57.45
2022-12-14T01:33:28.316Z,57.77
2022-12-14T01:34:27.940Z,57.24
2022-12-14T01:35:28.968Z,56.33
2022-12-14T01:36:27.934Z,57.61
2022-12-14T01:37:27.931Z,57.70
2022-12-14T01:38:27.915Z,52.38
2022-12-14T01:39:27.910Z,57.82
2022-12-14T01:40:27.932Z,61.41
2022-12-14T01:41:27.895Z,66.26
2022-12-14T01:42:27.890Z,59.07
2022-12-14T01:43:28.274Z,51.76
2022-12-14T01:44:27.888Z,49.40
2022-12-14T01:45:27.890Z,53.61
2022-12-14T01:46:27.900Z,66.73
2022-12-14T01:47:27.864Z,59.53
2022-12-14T01:48:27.847Z,65.15
2022-12-14T01:49:27.846Z,60.37
2022-12-14T01:50:27.854Z,52.09
2022-12-14T01:51:27.817Z,51.26
2022-12-14T01:52:27.820Z,51.62
2022-12-14T01:53:28.440Z,61.23
2022-12-14T01:54:27.804Z,65.05
2022-12-14T01:55:27.817Z,60.14
2022-12-14T01:56:27.788Z,57.44
2022-12-14T01:57:27.779Z,62.64
2022-12-14T01:58:27.776Z,59.01
2022-12-14T01:59:27.778Z,62.64
2022-12-14T02:00:27.782Z,53.98
2022-12-14T02:01:27.811Z,57.11
2022-12-14T02:02:27.884Z,53.07
2022-12-14T02:03:28.341Z,58.23
2022-12-14T02:04:27.731Z,64.70
2022-12-14T02:05:27.743Z,65.89
2022-12-14T02:06:27.709Z,57.62
2022-12-14T02:07:27.702Z,57.17
2022-12-14T02:08:27.699Z,65.52
2022-12-14T02:09:27.685Z,59.59
2022-12-14T02:10:27.714Z,54.94
2022-12-14T02:11:27.671Z,59.75
2022-12-14T02:12:27.670Z,62.12
2022-12-14T02:13:28.020Z,59.91
2022-12-14T02:14:27.655Z,51.67
2022-12-14T02:15:27.673Z,50.56
2022-12-14T02:16:27.684Z,51.64
2022-12-14T02:17:27.627Z,51.03
2022-12-14T02:18:27.629Z,49.19
2022-12-14T02:19:27.620Z,58.51
2022-12-14T02:20:27.647Z,57.14
2022-12-14T02:21:27.604Z,55.71
2022-12-14T02:22:27.595Z,49.40
2022-12-14T02:23:27.836Z,58.11
2022-12-14T02:24:27.575Z,65.12
2022-12-14T02:25:27.566Z,55.40
2022-12-14T02:26:27.583Z,56.40
2022-12-14T02:27:27.571Z,55.95
2022-12-14T02:28:27.552Z,54.79
2022-12-14T02:29:27.539Z,62.53
2022-12-14T02:30:27.537Z,60.81
2022-12-14T02:31:27.593Z,52.90
2022-12-14T02:32:27.526Z,59.47
2022-12-14T02:33:27.874Z,63.61
2022-12-14T02:34:27.505Z,62.05
2022-12-14T02:35:27.500Z,53.64
2022-12-14T02:36:27.518Z,51.52
2022-12-14T02:37:27.486Z,55.97
2022-12-14T02:38:27.475Z,48.05
2022-12-14T02:39:27.469Z,50.74
2022-12-14T02:40:27.467Z,50.41
2022-12-14T02:41:27.485Z,44.11
2022-12-14T02:42:27.445Z,47.73
2022-12-14T02:43:27.823Z,58.59
2022-12-14T02:44:27.429Z,60.88
2022-12-14T02:45:27.426Z,54.00
2022-12-14T02:46:27.455Z,52.55
2022-12-14T02:47:27.433Z,48.41
2022-12-14T02:48:27.399Z,52.63
2022-12-14T02:49:27.394Z,59.97
2022-12-14T02:50:27.388Z,54.43
2022-12-14T02:51:27.409Z,53.96
2022-12-14T02:52:27.374Z,59.12
2022-12-14T02:53:27.681Z,56.35
2022-12-14T02:54:27.360Z,55.89
2022-12-14T02:55:27.349Z,54.61
2022-12-14T02:56:27.344Z,61.11
2022-12-14T02:57:27.368Z,55.45
2022-12-14T02:58:27.332Z,52.69
2022-12-14T02:59:27.323Z,54.75
2022-12-14T03:00:27.319Z,60.90
2022-12-14T03:01:27.432Z,59.72
2022-12-14T03:02:27.484Z,58.63
2022-12-14T03:03:27.618Z,60.47
2022-12-14T03:04:27.295Z,59.56
2022-12-14T03:05:27.279Z,62.10
2022-12-14T03:06:27.269Z,60.91
2022-12-14T03:07:27.284Z,55.48
2022-12-14T03:08:27.252Z,51.88
2022-12-14T03:09:27.250Z,51.36
2022-12-14T03:10:27.245Z,51.59
2022-12-14T03:11:27.231Z,61.96
2022-12-14T03:12:27.252Z,54.58
2022-12-14T03:13:27.641Z,55.76
2022-12-14T03:14:27.212Z,59.58
2022-12-14T03:15:27.206Z,65.47
2022-12-14T03:16:27.250Z,59.38
2022-12-14T03:17:27.220Z,55.75
2022-12-14T03:18:27.194Z,62.29
2022-12-14T03:19:27.171Z,61.51
2022-12-14T03:20:28.165Z,64.33
2022-12-14T03:21:27.159Z,61.17
2022-12-14T03:22:27.181Z,60.95
2022-12-14T03:23:27.419Z,62.64
2022-12-14T03:24:27.139Z,57.61
2022-12-14T03:25:27.138Z,52.76
2022-12-14T03:26:27.128Z,56.59
2022-12-14T03:27:27.148Z,60.89
2022-12-14T03:28:27.115Z,61.50
2022-12-14T03:29:27.101Z,54.44
2022-12-14T03:30:58.416Z,53.26
2022-12-14T03:31:29.127Z,58.74
2022-12-14T03:32:27.080Z,62.34
2022-12-14T03:33:27.554Z,63.98
2022-12-14T03:34:27.066Z,66.53
2022-12-14T03:35:27.057Z,63.57
2022-12-14T03:36:27.050Z,67.66
2022-12-14T03:37:27.047Z,63.29
2022-12-14T03:38:27.057Z,57.49
2022-12-14T03:39:27.028Z,57.73
2022-12-14T03:40:27.024Z,59.32
2022-12-14T03:41:27.011Z,56.26
2022-12-14T03:42:27.001Z,60.37
2022-12-14T03:43:27.439Z,58.51
2022-12-14T03:44:26.992Z,47.37
2022-12-14T03:45:27.026Z,50.80
2022-12-14T03:46:26.970Z,50.12
2022-12-14T03:47:26.961Z,62.62
2022-12-14T03:48:26.982Z,67.67
2022-12-14T03:49:26.950Z,58.83
2022-12-14T03:50:26.946Z,57.56
2022-12-14T03:51:26.934Z,53.87
2022-12-14T03:52:26.920Z,63.29
2022-12-14T03:53:27.286Z,66.03
2022-12-14T03:54:26.908Z,64.66
2022-12-14T03:55:26.903Z,57.18
2022-12-14T03:56:26.896Z,55.37
2022-12-14T03:57:26.889Z,51.74
2022-12-14T03:58:26.907Z,56.41
2022-12-14T03:59:26.871Z,61.32
2022-12-14T04:00:26.868Z,59.21
2022-12-14T04:01:26.923Z,61.00
2022-12-14T04:02:27.022Z,55.91
2022-12-14T04:03:27.273Z,53.21
2022-12-14T04:04:26.838Z,57.98
2022-12-14T04:05:26.834Z,64.80
2022-12-14T04:06:26.824Z,69.88
2022-12-14T04:07:26.816Z,63.88
2022-12-14T04:08:26.840Z,64.90
2022-12-14T04:09:26.805Z,68.59
2022-12-14T04:10:26.797Z,64.43
2022-12-14T04:11:26.796Z,63.97
2022-12-14T04:12:26.787Z,64.69
2022-12-14T04:13:27.214Z,64.20
2022-12-14T04:14:26.773Z,63.58
2022-12-14T04:15:26.764Z,64.35
2022-12-14T04:16:26.833Z,61.58
2022-12-14T04:17:26.746Z,64.58
2022-12-14T04:18:26.779Z,66.55
2022-12-14T04:19:26.729Z,63.96
2022-12-14T04:20:26.726Z,64.17
2022-12-14T04:21:26.716Z,64.80
2022-12-14T04:22:26.714Z,62.91
2022-12-14T04:23:27.051Z,63.10
2022-12-14T04:24:26.695Z,62.50
2022-12-14T04:25:26.688Z,63.40
2022-12-14T04:26:26.694Z,61.11
2022-12-14T04:27:26.669Z,61.58
2022-12-14T04:28:26.665Z,64.03
2022-12-14T04:29:26.688Z,66.66
2022-12-14T04:30:26.648Z,66.46
2022-12-14T04:31:26.705Z,60.88
2022-12-14T04:32:26.668Z,61.03
2022-12-14T04:33:27.172Z,64.31
2022-12-14T04:34:26.645Z,66.81
2022-12-14T04:35:26.615Z,65.16
2022-12-14T04:36:26.606Z,65.15
2022-12-14T04:37:26.595Z,62.82
2022-12-14T04:38:26.587Z,64.08
2022-12-14T04:39:26.604Z,65.97
2022-12-14T04:40:26.601Z,63.63
2022-12-14T04:41:26.569Z,62.10
2022-12-14T04:42:26.563Z,66.90
2022-12-14T04:43:26.811Z,62.43
2022-12-14T04:44:26.574Z,66.39
2022-12-14T04:45:26.536Z,61.76
2022-12-14T04:46:26.538Z,64.07
2022-12-14T04:47:26.523Z,69.32
2022-12-14T04:48:26.523Z,65.06
2022-12-14T04:49:26.534Z,64.41
2022-12-14T04:50:26.498Z,63.62
2022-12-14T04:51:26.495Z,65.83
2022-12-14T04:52:26.482Z,65.49
2022-12-14T04:53:26.858Z,61.50
2022-12-14T04:54:26.497Z,64.63
2022-12-14T04:55:26.465Z,67.73
2022-12-14T04:56:26.456Z,61.46
2022-12-14T04:57:26.449Z,61.29
2022-12-14T04:58:26.445Z,62.41
2022-12-14T04:59:26.464Z,64.92
2022-12-14T05:00:26.432Z,63.88
2022-12-14T05:01:26.537Z,62.77
2022-12-14T05:02:26.507Z,61.67
2022-12-14T05:03:26.710Z,63.94
2022-12-14T05:04:26.425Z,61.27
2022-12-14T05:05:26.393Z,64.32
2022-12-14T05:06:26.389Z,57.28
2022-12-14T05:07:26.381Z,65.86
2022-12-14T05:08:26.368Z,64.31
2022-12-14T05:09:26.394Z,65.82
2022-12-14T05:10:26.356Z,64.15
2022-12-14T05:11:54.910Z,64.36
2022-12-14T05:12:28.350Z,63.08
2022-12-14T05:13:26.795Z,64.36
2022-12-14T05:14:26.343Z,64.69
2022-12-14T05:15:27.321Z,65.31
2022-12-14T05:16:26.384Z,66.58
2022-12-14T05:17:26.311Z,68.03
2022-12-14T05:18:26.300Z,63.36
2022-12-14T05:19:26.572Z,62.86
2022-12-14T05:20:26.293Z,67.79
2022-12-14T05:21:26.283Z,64.20
2022-12-14T05:22:26.279Z,64.74
2022-12-14T05:23:26.709Z,64.04
2022-12-14T05:24:26.286Z,66.03
2022-12-14T05:25:26.250Z,67.46
2022-12-14T05:26:26.250Z,67.99
2022-12-14T05:27:26.234Z,65.48
2022-12-14T05:28:26.227Z,62.51
2022-12-14T05:29:26.250Z,69.20
2022-12-14T05:30:26.264Z,66.79
2022-12-14T05:31:26.207Z,65.69
2022-12-14T05:32:26.210Z,66.93
2022-12-14T05:33:26.409Z,67.22
2022-12-14T05:34:26.223Z,65.71
2022-12-14T05:35:26.179Z,68.81
2022-12-14T05:36:26.186Z,67.64
2022-12-14T05:37:26.167Z,62.08
2022-12-14T05:38:26.151Z,67.82
2022-12-14T05:39:26.189Z,67.81
2022-12-14T05:40:26.143Z,65.01
2022-12-14T05:41:26.134Z,62.98
2022-12-14T05:42:26.129Z,66.07
2022-12-14T05:43:26.507Z,66.87
2022-12-14T05:44:26.095Z,66.13
2022-12-14T05:45:27.126Z,66.98
2022-12-14T05:46:26.130Z,68.68
2022-12-14T05:47:26.098Z,66.84
2022-12-14T05:48:26.103Z,68.89
2022-12-14T05:49:26.077Z,67.36
2022-12-14T05:50:26.090Z,66.63
2022-12-14T05:51:26.064Z,64.89
2022-12-14T05:52:26.059Z,66.70
2022-12-14T05:53:26.374Z,69.82
2022-12-14T05:54:26.040Z,66.56
2022-12-14T05:55:26.065Z,67.96
2022-12-14T05:56:26.031Z,69.92
2022-12-14T05:57:26.028Z,65.84
2022-12-14T05:58:26.017Z,68.44
2022-12-14T05:59:26.009Z,68.38
2022-12-14T06:00:26.032Z,68.14
2022-12-14T06:01:26.064Z,66.17
2022-12-14T06:02:26.124Z,62.56
2022-12-14T06:03:26.437Z,67.85
2022-12-14T06:04:26.187Z,69.40
2022-12-14T06:05:25.990Z,65.54
2022-12-14T06:06:25.954Z,66.73
2022-12-14T06:07:27.927Z,66.87
2022-12-14T06:08:26.935Z,65.27
2022-12-14T06:09:25.930Z,67.14
2022-12-14T06:10:25.948Z,65.15
2022-12-14T06:11:25.917Z,67.31
2022-12-14T06:12:25.914Z,67.28
2022-12-14T06:13:26.320Z,66.03
2022-12-14T06:14:25.893Z,68.31
2022-12-14T06:15:30.715Z,67.22
2022-12-14T06:16:27.924Z,66.15
2022-12-14T06:17:25.872Z,70.74
2022-12-14T06:18:25.866Z,67.38
2022-12-14T06:19:25.856Z,59.93
2022-12-14T06:20:25.870Z,66.30
2022-12-14T06:21:25.838Z,63.00
2022-12-14T06:22:25.846Z,67.94
2022-12-14T06:23:26.283Z,66.54
2022-12-14T06:24:25.820Z,66.58
2022-12-14T06:25:25.838Z,65.30
2022-12-14T06:26:25.806Z,65.01
2022-12-14T06:27:25.797Z,66.68
2022-12-14T06:28:25.793Z,68.18
2022-12-14T06:29:25.779Z,66.77
2022-12-14T06:30:25.802Z,66.71
2022-12-14T06:31:25.793Z,68.14
2022-12-14T06:32:25.763Z,68.23
2022-12-14T06:33:26.126Z,69.18
2022-12-14T06:34:28.641Z,63.98
2022-12-14T06:35:26.768Z,67.46
2022-12-14T06:36:25.735Z,68.85
2022-12-14T06:37:25.726Z,67.28
2022-12-14T06:38:25.715Z,66.55
2022-12-14T06:39:25.713Z,66.67
2022-12-14T06:40:25.727Z,66.69
2022-12-14T06:41:25.695Z,66.58
2022-12-14T06:42:25.689Z,66.62
2022-12-14T06:43:26.103Z,64.75
2022-12-14T06:44:25.676Z,68.79
2022-12-14T06:45:25.695Z,68.91
2022-12-14T06:46:25.705Z,68.21
2022-12-14T06:47:25.659Z,67.08
2022-12-14T06:48:25.647Z,66.66
2022-12-14T06:49:25.638Z,65.78
2022-12-14T06:50:25.666Z,68.60
2022-12-14T06:51:25.621Z,64.83
2022-12-14T06:52:27.218Z,67.53
2022-12-14T06:53:27.012Z,66.06
2022-12-14T06:54:25.599Z,64.66
2022-12-14T06:55:25.626Z,66.40
2022-12-14T06:56:25.639Z,67.39
2022-12-14T06:57:25.576Z,67.26
2022-12-14T06:58:30.918Z,67.63
2022-12-14T06:59:27.596Z,65.75
2022-12-14T07:00:25.558Z,67.02
2022-12-14T07:01:25.729Z,68.24
2022-12-14T07:02:26.738Z,67.42
2022-12-14T07:03:25.929Z,67.84
2022-12-14T07:04:25.531Z,65.22
2022-12-14T07:05:25.523Z,66.43
2022-12-14T07:06:25.540Z,66.08
2022-12-14T07:07:25.508Z,68.54
2022-12-14T07:08:25.497Z,66.53
2022-12-14T07:09:25.492Z,67.36
2022-12-14T07:10:25.485Z,65.91
2022-12-14T07:11:25.504Z,64.45
2022-12-14T07:12:25.471Z,66.34
2022-12-14T07:13:25.724Z,65.54
2022-12-14T07:14:25.458Z,65.64
2022-12-14T07:15:25.447Z,71.10
2022-12-14T07:16:25.519Z,66.72
2022-12-14T07:17:25.430Z,65.34
2022-12-14T07:18:25.427Z,64.24
2022-12-14T07:19:25.417Z,66.55
2022-12-14T07:20:25.415Z,68.53
2022-12-14T07:21:25.428Z,65.20
2022-12-14T07:22:25.399Z,63.46
2022-12-14T07:23:28.014Z,66.25
2022-12-14T07:24:26.382Z,68.56
2022-12-14T07:25:25.370Z,66.44
2022-12-14T07:26:26.398Z,63.15
2022-12-14T07:27:25.361Z,63.21
2022-12-14T07:28:25.365Z,69.48
2022-12-14T07:29:28.400Z,67.74
2022-12-14T07:30:26.338Z,61.78
2022-12-14T07:31:25.430Z,67.19
2022-12-14T07:32:25.323Z,66.93
2022-12-14T07:33:25.680Z,66.27
2022-12-14T07:34:25.311Z,64.95
2022-12-14T07:35:25.295Z,63.55
2022-12-14T07:36:26.321Z,65.42
2022-12-14T07:37:25.291Z,66.91
2022-12-14T07:38:25.295Z,64.22
2022-12-14T07:39:25.276Z,67.67
2022-12-14T07:40:25.271Z,64.61
2022-12-14T07:41:25.286Z,67.64
2022-12-14T07:42:25.258Z,66.83
2022-12-14T07:43:25.646Z,63.75
2022-12-14T07:44:25.250Z,68.84
2022-12-14T07:45:25.236Z,67.21
2022-12-14T07:46:25.318Z,61.89
2022-12-14T07:47:25.218Z,65.98
2022-12-14T07:48:25.212Z,64.76
2022-12-14T07:49:25.204Z,66.73
2022-12-14T07:50:26.199Z,64.90
2022-12-14T07:51:25.221Z,65.81
2022-12-14T07:52:25.186Z,65.98
2022-12-14T07:53:25.475Z,64.39
2022-12-14T07:54:25.172Z,63.16
2022-12-14T07:55:25.163Z,65.09
2022-12-14T07:56:25.192Z,64.16
2022-12-14T07:57:25.153Z,66.84
2022-12-14T07:58:25.143Z,70.48
2022-12-14T07:59:25.138Z,62.28
2022-12-14T08:00:25.130Z,63.59
2022-12-14T08:01:25.265Z,65.65
2022-12-14T08:02:25.276Z,66.93
2022-12-14T08:03:25.103Z,63.48
2022-12-14T08:04:25.166Z,62.87
2022-12-14T08:05:25.088Z,69.01
2022-12-14T08:06:25.310Z,66.13
2022-12-14T08:07:25.063Z,64.67
2022-12-14T08:08:26.064Z,63.49
2022-12-14T08:09:25.053Z,64.87
2022-12-14T08:10:25.052Z,67.69
2022-12-14T08:11:25.038Z,66.76
2022-12-14T08:12:25.060Z,64.79
2022-12-14T08:13:25.029Z,62.48
2022-12-14T08:14:25.026Z,64.69
2022-12-14T08:15:25.018Z,67.53
2022-12-14T08:16:25.043Z,67.70
2022-12-14T08:17:25.025Z,62.82
2022-12-14T08:18:24.992Z,63.22
2022-12-14T08:19:24.989Z,68.24
2022-12-14T08:20:24.989Z,63.36
2022-12-14T08:21:24.974Z,65.15
2022-12-14T08:22:24.990Z,64.91
2022-12-14T08:23:24.959Z,69.11
2022-12-14T08:24:24.949Z,67.40
2022-12-14T08:25:24.947Z,66.43
2022-12-14T08:26:26.425Z,66.89
2022-12-14T08:27:25.950Z,61.76
2022-12-14T08:28:24.921Z,66.43
2022-12-14T08:29:24.918Z,66.09
2022-12-14T08:30:24.909Z,63.68
2022-12-14T08:31:25.001Z,68.81
2022-12-14T08:32:27.282Z,65.96
2022-12-14T08:33:25.899Z,66.46
2022-12-14T08:34:24.876Z,67.69
2022-12-14T08:35:24.875Z,66.02
2022-12-14T08:36:24.864Z,64.60
2022-12-14T08:37:24.878Z,66.16
2022-12-14T08:38:24.847Z,64.88
2022-12-14T08:39:24.829Z,61.40
2022-12-14T08:40:25.912Z,65.40
2022-12-14T08:41:24.826Z,66.96
2022-12-14T08:42:24.846Z,63.81
2022-12-14T08:43:25.248Z,68.40
2022-12-14T08:44:25.823Z,66.50
2022-12-14T08:45:24.791Z,65.48
2022-12-14T08:46:24.816Z,64.87
2022-12-14T08:47:25.805Z,66.48
2022-12-14T08:48:24.774Z,67.38
2022-12-14T08:49:30.545Z,64.94
2022-12-14T08:50:26.756Z,66.36
2022-12-14T08:51:24.746Z,67.88
2022-12-14T08:52:24.766Z,58.48
2022-12-14T08:53:24.739Z,58.67
2022-12-14T08:54:24.733Z,59.47
2022-12-14T08:55:29.231Z,63.75
2022-12-14T08:56:26.723Z,65.16
2022-12-14T08:57:24.730Z,68.45
2022-12-14T08:58:24.700Z,65.55
2022-12-14T08:59:52.255Z,64.92
2022-12-14T09:00:26.782Z,66.90
2022-12-14T09:01:30.331Z,62.28
2022-12-14T09:02:26.819Z,62.96
2022-12-14T09:03:24.664Z,65.99
2022-12-14T09:04:24.658Z,65.78
2022-12-14T09:05:24.645Z,65.75
2022-12-14T09:06:24.645Z,66.60
2022-12-14T09:07:24.657Z,65.73
2022-12-14T09:08:24.633Z,62.83
2022-12-14T09:09:24.614Z,65.52
2022-12-14T09:10:25.610Z,63.27
2022-12-14T09:11:24.602Z,62.98
2022-12-14T09:12:24.620Z,66.56
2022-12-14T09:13:24.588Z,67.25
2022-12-14T09:14:24.589Z,65.37
2022-12-14T09:15:24.571Z,68.44
2022-12-14T09:16:24.626Z,66.16
2022-12-14T09:17:24.593Z,69.35
2022-12-14T09:18:24.555Z,62.70
2022-12-14T09:19:24.547Z,62.34
2022-12-14T09:20:24.535Z,66.83
2022-12-14T09:21:24.526Z,65.63
2022-12-14T09:22:24.677Z,65.78
2022-12-14T09:23:24.515Z,71.76
2022-12-14T09:24:24.522Z,67.02
2022-12-14T09:25:24.502Z,64.23
2022-12-14T09:26:24.499Z,64.42
2022-12-14T09:27:24.519Z,66.07
2022-12-14T09:28:24.482Z,67.17
2022-12-14T09:29:24.484Z,66.61
2022-12-14T09:30:26.795Z,68.09
2022-12-14T09:31:25.562Z,66.53
2022-12-14T09:32:24.513Z,62.46
2022-12-14T09:33:24.444Z,62.93
2022-12-14T09:34:24.440Z,62.76
2022-12-14T09:35:24.430Z,63.60
2022-12-14T09:36:24.421Z,66.72
2022-12-14T09:37:24.443Z,62.61
2022-12-14T09:38:24.413Z,64.59
2022-12-14T09:39:24.403Z,68.15
2022-12-14T09:40:24.410Z,68.58
2022-12-14T09:41:24.390Z,66.08
2022-12-14T09:42:24.383Z,66.31
2022-12-14T09:43:24.400Z,67.13
2022-12-14T09:44:24.378Z,66.51
2022-12-14T09:45:24.434Z,63.75
2022-12-14T09:46:24.351Z,60.69
2022-12-14T09:47:24.344Z,67.10
2022-12-14T09:48:24.363Z,65.71
2022-12-14T09:49:24.330Z,64.31
2022-12-14T09:50:24.326Z,62.09
2022-12-14T09:51:24.339Z,63.96
2022-12-14T09:52:24.310Z,65.69
2022-12-14T09:53:24.324Z,63.73
2022-12-14T09:54:24.316Z,65.27
2022-12-14T09:55:24.288Z,64.64
2022-12-14T09:56:24.281Z,64.69
2022-12-14T09:57:24.274Z,67.29
2022-12-14T09:58:24.318Z,63.54
2022-12-14T09:59:24.258Z,63.49
2022-12-14T10:00:24.251Z,66.37
2022-12-14T10:01:24.408Z,63.54
2022-12-14T10:02:32.483Z,66.31
2022-12-14T10:03:26.504Z,63.42
2022-12-14T10:04:24.246Z,65.04
2022-12-14T10:05:24.218Z,67.37
2022-12-14T10:06:24.211Z,62.76
2022-12-14T10:07:24.203Z,67.23
2022-12-14T10:08:24.223Z,64.02
2022-12-14T10:09:24.189Z,63.39
2022-12-14T10:10:24.182Z,67.03
2022-12-14T10:11:24.173Z,67.00
2022-12-14T10:12:24.945Z,66.37
2022-12-14T10:13:24.175Z,65.47
2022-12-14T10:14:25.153Z,63.27
2022-12-14T10:15:24.145Z,63.29
2022-12-14T10:16:24.170Z,67.68
2022-12-14T10:17:24.131Z,65.15
2022-12-14T10:18:57.485Z,64.63
2022-12-14T10:19:26.123Z,64.84
2022-12-14T10:20:24.110Z,66.95
2022-12-14T10:21:24.102Z,65.60
2022-12-14T10:22:24.094Z,61.50
2022-12-14T10:23:24.135Z,65.98
2022-12-14T10:24:24.082Z,62.53
2022-12-14T10:25:24.072Z,63.31
2022-12-14T10:26:24.071Z,65.81
2022-12-14T10:27:24.057Z,69.09
2022-12-14T10:28:24.078Z,69.78
2022-12-14T10:29:24.040Z,71.61
2022-12-14T10:30:24.038Z,70.97
2022-12-14T10:31:24.056Z,70.51
2022-12-14T10:32:24.014Z,71.23
2022-12-14T10:33:24.019Z,71.59
2022-12-14T10:34:24.041Z,70.92
2022-12-14T10:35:23.993Z,70.66
2022-12-14T10:36:23.987Z,70.39
2022-12-14T10:37:23.980Z,70.68
2022-12-14T10:38:24.000Z,67.21
2022-12-14T10:39:23.960Z,64.98
2022-12-14T10:40:33.050Z,65.82
2022-12-14T10:41:25.959Z,66.02
2022-12-14T10:42:23.944Z,60.60
2022-12-14T10:43:23.940Z,66.81
2022-12-14T10:44:23.951Z,62.27
2022-12-14T10:45:40.743Z,64.03
2022-12-14T10:46:26.011Z,66.60
2022-12-14T10:47:23.913Z,67.33
2022-12-14T10:48:23.901Z,61.71
2022-12-14T10:49:23.922Z,63.84
2022-12-14T10:50:23.882Z,65.64
2022-12-14T10:51:23.880Z,66.04
2022-12-14T10:52:23.874Z,62.44
2022-12-14T10:53:23.888Z,66.36
2022-12-14T10:54:23.880Z,66.62
2022-12-14T10:55:23.854Z,64.06
2022-12-14T10:56:23.863Z,68.31
2022-12-14T10:57:23.849Z,60.71
2022-12-14T10:58:23.826Z,64.95
2022-12-14T10:59:23.862Z,66.72
2022-12-14T11:00:24.124Z,64.90
2022-12-14T11:01:23.894Z,64.79
2022-12-14T11:02:23.994Z,64.55
2022-12-14T11:03:23.850Z,63.92
2022-12-14T11:04:23.804Z,63.37
2022-12-14T11:05:23.782Z,60.10
2022-12-14T11:06:23.771Z,64.35
2022-12-14T11:07:23.764Z,66.06
2022-12-14T11:08:23.746Z,65.87
2022-12-14T11:09:24.778Z,65.08
2022-12-14T11:10:23.747Z,60.86
2022-12-14T11:11:23.904Z,65.46
2022-12-14T11:12:23.734Z,66.98
2022-12-14T11:13:23.717Z,64.61
2022-12-14T11:14:23.745Z,67.76
2022-12-14T11:15:23.706Z,64.92
2022-12-14T11:16:23.796Z,65.05
2022-12-14T11:17:23.754Z,62.97
2022-12-14T11:18:23.733Z,64.76
2022-12-14T11:19:23.705Z,68.20
2022-12-14T11:20:23.663Z,64.58
2022-12-14T11:21:23.657Z,66.99
2022-12-14T11:22:23.651Z,63.93
2022-12-14T11:23:23.643Z,63.43
2022-12-14T11:24:23.637Z,64.74
2022-12-14T11:25:23.656Z,64.59
2022-12-14T11:26:23.616Z,65.61
2022-12-14T11:27:23.614Z,63.38
2022-12-14T11:28:23.611Z,64.49
2022-12-14T11:29:23.599Z,66.26
2022-12-14T11:30:23.776Z,67.88
2022-12-14T11:31:23.650Z,66.65
2022-12-14T11:32:23.573Z,63.41
2022-12-14T11:33:23.569Z,66.92
2022-12-14T11:34:23.557Z,67.98
2022-12-14T11:35:23.576Z,66.74
2022-12-14T11:36:23.561Z,63.23
2022-12-14T11:37:23.541Z,64.90
2022-12-14T11:38:23.528Z,65.98
2022-12-14T11:39:23.522Z,69.31
2022-12-14T11:40:23.547Z,62.11
2022-12-14T11:41:23.505Z,65.92
2022-12-14T11:42:23.499Z,67.39
2022-12-14T11:43:23.490Z,66.72
2022-12-14T11:44:23.487Z,61.65
2022-12-14T11:45:23.494Z,65.80
2022-12-14T11:46:23.529Z,64.29
2022-12-14T11:47:23.458Z,65.47
2022-12-14T11:48:23.448Z,66.86
2022-12-14T11:49:23.442Z,65.22
2022-12-14T11:50:23.466Z,66.29
2022-12-14T11:51:23.429Z,68.19
2022-12-14T11:52:23.426Z,66.78
2022-12-14T11:53:23.421Z,61.35
2022-12-14T11:54:23.408Z,64.45
2022-12-14T11:55:27.105Z,64.65
2022-12-14T11:56:24.394Z,63.07
2022-12-14T11:57:23.382Z,68.54
2022-12-14T11:58:23.378Z,66.07
2022-12-14T11:59:23.367Z,64.93
2022-12-14T12:00:23.396Z,63.64
2022-12-14T12:01:23.405Z,62.74
2022-12-14T12:02:23.410Z,64.98
2022-12-14T12:03:23.385Z,68.21
2022-12-14T12:04:23.334Z,61.54
2022-12-14T12:05:23.355Z,63.91
2022-12-14T12:06:23.315Z,65.90
2022-12-14T12:07:23.325Z,65.32
2022-12-14T12:08:23.306Z,65.72
2022-12-14T12:09:23.288Z,64.02
2022-12-14T12:10:23.346Z,64.39
2022-12-14T12:11:23.286Z,65.79
2022-12-14T12:12:23.273Z,67.57
2022-12-14T12:13:23.265Z,64.39
2022-12-14T12:14:23.253Z,65.88
2022-12-14T12:15:23.274Z,65.42
2022-12-14T12:16:23.309Z,67.85
2022-12-14T12:17:23.227Z,64.42
2022-12-14T12:18:23.218Z,67.06
2022-12-14T12:19:23.228Z,66.85
2022-12-14T12:20:23.230Z,65.88
2022-12-14T12:21:23.195Z,68.43
2022-12-14T12:22:23.202Z,68.27
2022-12-14T12:23:23.200Z,68.99
2022-12-14T12:24:23.173Z,66.37
2022-12-14T12:25:27.569Z,65.84
2022-12-14T12:26:25.161Z,63.35
2022-12-14T12:27:23.152Z,64.27
2022-12-14T12:28:23.149Z,66.57
2022-12-14T12:29:23.135Z,65.01
2022-12-14T12:30:24.157Z,68.43
2022-12-14T12:31:24.159Z,62.94
2022-12-14T12:32:23.114Z,63.10
2022-12-14T12:33:23.127Z,60.95
2022-12-14T12:34:23.098Z,68.54
2022-12-14T12:35:23.123Z,67.97
2022-12-14T12:36:24.268Z,66.46
2022-12-14T12:37:26.604Z,67.94
2022-12-14T12:38:24.077Z,66.85
2022-12-14T12:39:23.056Z,67.64
2022-12-14T12:40:23.051Z,66.43
2022-12-14T12:41:23.072Z,67.34
2022-12-14T12:42:23.037Z,65.50
2022-12-14T12:43:23.029Z,69.52
2022-12-14T12:44:23.021Z,65.84
2022-12-14T12:45:23.018Z,65.56
2022-12-14T12:46:23.083Z,65.15
2022-12-14T12:47:27.937Z,66.64
2022-12-14T12:48:24.991Z,67.88
2022-12-14T12:49:22.993Z,64.17
2022-12-14T12:50:22.991Z,64.68
2022-12-14T12:51:22.997Z,65.40
2022-12-14T12:52:22.961Z,66.36